Terminal Aerodrome Forecast
Issued by NWS Blacksburg, VA

Home | Current Version | Previous Version | Text Only | Print | Product List | Glossary On
Versions: 1 2 3 4 5 6 7 8 9 10 11 12 13 14 15 16 17
000
FTUS41 KRNK 261124
TAFROA
TAF
KROA 261124Z 2612/2712 29007KT P6SM SKC
     FM261500 29011G20KT P6SM SKC
     FM262000 28010KT P6SM FEW250
     FM262300 27005KT P6SM FEW200
     FM270800 00000KT P6SM BKN100=

USA.gov is the U.S. government's official web portal to all federal, state and local government web resources and services.